Time;durP1;ratioP1;P1;durP2;ratioP2;P2;SDS_P1;SDS_P2;PMS_P1;PMS_P2;Temp;Humidity;BMP_temperature;BMP_pressure;BME280_temperature;BME280_humidity;BME280_pressure;Samples;Min_cycle;Max_cycle;Signal;HPM_P1;HPM_P2
2022/02/15 00:01:23;;;;;;;;;42.75;34.00;;;;;7.84;39.12;98323.69;6195621;28;96588;-72
2022/02/15 00:04:28;;;;;;;;;44.00;34.00;;;;;7.77;39.94;98314.06;6219367;28;97012;-71
2022/02/15 00:07:32;;;;;;;;;45.50;35.00;;;;;7.96;39.71;98328.38;6183682;28;99781;-71
2022/02/15 00:10:35;;;;;;;;;40.25;34.75;;;;;7.93;39.66;98329.63;6214613;28;98049;-72
2022/02/15 00:13:38;;;;;;;;;43.60;36.00;;;;;7.89;40.03;98339.16;6187748;28;97904;-72
2022/02/15 00:16:41;;;;;;;;;40.00;35.00;;;;;7.88;40.03;98347.41;6218808;28;98368;-72
2022/02/15 00:19:46;;;;;;;;;40.40;33.60;;;;;7.89;39.95;98335.63;6233960;28;97632;-72
2022/02/15 00:22:50;;;;;;;;;45.00;36.60;;;;;7.86;40.19;98330.72;6236161;28;96648;-71
2022/02/15 00:25:54;;;;;;;;;45.00;35.00;;;;;7.80;40.33;98338.59;6215369;28;97361;-71
2022/02/15 00:28:57;;;;;;;;;43.80;35.00;;;;;7.77;40.49;98333.66;6204784;28;98741;-70
2022/02/15 00:32:01;;;;;;;;;47.00;36.40;;;;;7.80;40.67;98332.41;6191910;28;98523;-72
2022/02/15 00:35:06;;;;;;;;;45.00;36.00;;;;;7.81;40.48;98334.88;6196451;28;96639;-71
2022/02/15 00:38:10;;;;;;;;;45.00;36.00;;;;;7.83;40.43;98326.59;6215373;28;97788;-73
2022/02/15 00:41:14;;;;;;;;;43.00;36.00;;;;;7.81;40.54;98339.41;6207719;28;96973;-71
2022/02/15 00:44:17;;;;;;;;;42.00;35.00;;;;;7.80;40.73;98330.53;6217008;28;96814;-71
2022/02/15 00:47:21;;;;;;;;;45.00;35.00;;;;;7.81;40.82;98337.56;6197939;28;97841;-71
2022/02/15 00:50:26;;;;;;;;;46.75;36.00;;;;;7.84;40.65;98322.88;6203608;28;96650;-71
2022/02/15 00:53:29;;;;;;;;;48.40;37.60;;;;;7.78;40.63;98319.19;6236300;27;97566;-71
2022/02/15 00:56:32;;;;;;;;;49.00;37.00;;;;;7.63;40.67;98299.91;6196001;28;96987;-72
2022/02/15 00:59:36;;;;;;;;;49.00;37.80;;;;;7.64;40.84;98304.22;6189637;28;98540;-71
2022/02/15 01:02:39;;;;;;;;;46.20;36.00;;;;;7.58;40.97;98318.50;6218746;28;97649;-72
2022/02/15 01:05:44;;;;;;;;;47.00;38.00;;;;;7.57;41.22;98310.69;6219926;28;97123;-73
2022/02/15 01:08:47;;;;;;;;;45.25;35.00;;;;;7.52;41.37;98310.53;6197390;28;98503;-72
2022/02/15 01:11:51;;;;;;;;;47.60;37.00;;;;;7.50;41.31;98301.84;6218009;28;96469;-72
2022/02/15 01:14:54;;;;;;;;;46.00;38.00;;;;;7.42;41.59;98302.94;6203365;28;97508;-72
2022/02/15 01:17:57;;;;;;;;;47.60;38.60;;;;;7.46;41.36;98292.59;6220374;28;98372;-72
2022/02/15 01:21:02;;;;;;;;;45.80;36.80;;;;;7.23;41.14;98258.31;6211624;28;96402;-73
2022/02/15 01:24:06;;;;;;;;;45.40;36.00;;;;;7.39;41.76;98288.09;6198354;28;96664;-72
2022/02/15 01:27:09;;;;;;;;;46.80;36.80;;;;;7.40;41.52;98280.88;6236375;27;97022;-72
2022/02/15 01:30:13;;;;;;;;;46.25;38.00;;;;;7.37;41.78;98286.69;6221226;28;96669;-72
2022/02/15 01:33:16;;;;;;;;;45.50;36.00;;;;;7.39;42.03;98273.88;6192659;28;98335;-72
2022/02/15 01:36:21;;;;;;;;;45.25;36.00;;;;;7.42;42.03;98275.31;6197040;28;96989;-72
2022/02/15 01:39:25;;;;;;;;;46.40;38.00;;;;;7.42;42.21;98267.25;6205414;28;97550;-72
2022/02/15 01:42:28;;;;;;;;;46.40;38.00;;;;;7.40;42.06;98262.09;6215857;28;97397;-72
2022/02/15 01:45:31;;;;;;;;;45.80;36.20;;;;;7.38;41.91;98266.84;6205295;28;97593;-71
2022/02/15 01:48:37;;;;;;;;;45.40;37.00;;;;;7.39;42.32;98257.78;6195211;28;98003;-71
2022/02/15 01:51:44;;;;;;;;;47.00;38.00;;;;;7.38;42.43;98266.84;6192423;28;98205;-72
2022/02/15 01:54:49;;;;;;;;;49.00;39.40;;;;;7.37;42.32;98257.19;6221568;28;97475;-72
2022/02/15 01:57:53;;;;;;;;;46.40;38.40;;;;;7.39;42.21;98260.47;6217558;28;96744;-71
2022/02/15 02:01:05;;;;;;;;;47.80;38.40;;;;;7.36;42.33;98247.50;6200404;28;97148;-72
2022/02/15 02:07:34;;;;;;;;;50.50;37.00;;;;;7.31;42.68;98263.41;6213608;28;99383;-72
2022/02/15 02:10:38;;;;;;;;;48.40;37.00;;;;;7.34;42.38;98262.97;6207487;28;96755;-73
2022/02/15 02:13:47;;;;;;;;;48.40;38.00;;;;;7.32;42.42;98275.78;6214059;28;98026;-72
2022/02/15 02:16:51;;;;;;;;;45.20;35.80;;;;;7.27;42.39;98262.19;6202946;28;98326;-73
2022/02/15 02:20:02;;;;;;;;;47.60;37.60;;;;;7.26;42.61;98269.41;6214854;28;97575;-72
2022/02/15 02:23:09;;;;;;;;;48.00;38.00;;;;;7.18;42.63;98267.00;6194848;28;99921;-72
2022/02/15 02:26:14;;;;;;;;;49.00;38.00;;;;;7.15;42.56;98263.91;6210647;28;97356;-72
2022/02/15 02:29:18;;;;;;;;;47.00;38.00;;;;;7.15;42.66;98259.38;6202386;28;98249;-72
2022/02/15 02:32:25;;;;;;;;;48.20;37.60;;;;;7.11;42.84;98260.00;6232346;28;97645;-71
2022/02/15 02:35:28;;;;;;;;;48.40;38.80;;;;;7.09;42.59;98262.06;6214179;28;96969;-72
2022/02/15 02:38:34;;;;;;;;;48.00;38.00;;;;;7.03;42.83;98263.78;6194730;28;97332;-72
2022/02/15 02:41:39;;;;;;;;;47.50;38.50;;;;;7.00;42.66;98258.84;6196416;28;97413;-72
2022/02/15 02:44:44;;;;;;;;;46.00;36.60;;;;;6.92;42.90;98264.44;6216877;28;97424;-73
2022/02/15 02:47:49;;;;;;;;;45.20;37.20;;;;;6.87;42.78;98261.59;6198077;28;97115;-72
2022/02/15 02:50:55;;;;;;;;;47.00;38.00;;;;;6.85;43.13;98261.78;6196328;28;96892;-72
2022/02/15 02:54:00;;;;;;;;;48.33;39.33;;;;;6.82;43.60;98262.22;6194465;28;97275;-72
2022/02/15 02:57:06;;;;;;;;;50.40;40.00;;;;;6.77;43.95;98251.31;6212617;28;97556;-72
2022/02/15 03:00:15;;;;;;;;;49.00;39.00;;;;;6.76;43.40;98252.34;6198877;28;100140;-71
2022/02/15 03:03:40;;;;;;;;;45.75;36.50;;;;;6.72;42.92;98243.09;6177545;28;98520;-72
2022/02/15 03:06:45;;;;;;;;;49.00;37.00;;;;;6.64;43.11;98248.72;6196735;28;97224;-72
2022/02/15 03:09:50;;;;;;;;;46.75;37.75;;;;;6.61;43.27;98250.97;6188304;28;96842;-73
2022/02/15 03:12:54;;;;;;;;;48.00;36.60;;;;;6.53;43.37;98244.00;6192608;28;96952;-73
2022/02/15 03:15:58;;;;;;;;;47.60;37.60;;;;;6.56;43.20;98248.09;6190215;28;97360;-72
2022/02/15 03:19:02;;;;;;;;;47.40;38.40;;;;;6.30;43.73;98223.09;6197559;28;96616;-71
2022/02/15 03:22:06;;;;;;;;;46.00;38.00;;;;;6.51;43.86;98249.56;6191618;28;99862;-71
2022/02/15 03:25:12;;;;;;;;;50.00;39.00;;;;;6.47;43.85;98247.53;6195734;28;97877;-72
2022/02/15 03:28:15;;;;;;;;;49.00;39.00;;;;;6.41;44.00;98248.34;6215555;28;96652;-73
2022/02/15 03:31:19;;;;;;;;;47.80;38.00;;;;;6.41;44.11;98249.19;6169161;28;99013;-71
2022/02/15 03:34:29;;;;;;;;;50.00;38.00;;;;;6.42;44.22;98250.00;6190503;28;96762;-72
2022/02/15 03:37:32;;;;;;;;;43.20;35.00;;;;;6.44;45.09;98250.63;6204402;28;97429;-73
2022/02/15 03:44:12;;;;;;;;;48.25;38.00;;;;;6.47;44.45;98251.03;6192198;28;96658;-73
2022/02/15 03:47:18;;;;;;;;;47.00;36.00;;;;;6.53;44.39;98257.41;6202636;28;96983;-73
2022/02/15 03:50:21;;;;;;;;;48.00;38.00;;;;;6.22;44.61;98217.13;6208275;28;96614;-72
2022/02/15 03:53:24;;;;;;;;;48.00;37.00;;;;;6.54;44.19;98261.72;6189177;28;98344;-73
2022/02/15 03:56:29;;;;;;;;;49.00;38.00;;;;;6.57;44.47;98263.97;6208387;28;96514;-74
2022/02/15 03:59:33;;;;;;;;;40.00;33.40;;;;;6.65;44.97;98270.94;6173979;28;99483;-72
2022/02/15 04:02:37;;;;;;;;;43.60;35.00;;;;;6.79;44.71;98270.66;6213603;28;97087;-73
2022/02/15 04:05:41;;;;;;;;;44.60;35.80;;;;;6.79;44.41;98270.66;6193880;28;96987;-73
2022/02/15 04:08:45;;;;;;;;;40.40;33.00;;;;;6.82;44.58;98262.22;6204859;28;97706;-73
2022/02/15 04:11:50;;;;;;;;;44.80;35.00;;;;;6.82;44.25;98272.94;6211858;28;96754;-72
2022/02/15 04:14:59;;;;;;;;;45.00;35.00;;;;;6.78;44.19;98269.06;6205795;28;97232;-73
2022/02/15 04:18:11;;;;;;;;;45.00;36.00;;;;;6.75;44.05;98271.31;6185469;28;99421;-73
2022/02/15 04:21:15;;;;;;;;;45.50;36.00;;;;;6.67;43.84;98271.56;6181024;28;97843;-73
2022/02/15 04:24:19;;;;;;;;;45.00;37.00;;;;;6.62;44.40;98274.88;6191641;28;98015;-72
2022/02/15 04:27:24;;;;;;;;;50.60;39.00;;;;;6.56;44.64;98270.34;6206251;28;96619;-73
2022/02/15 04:30:28;;;;;;;;;48.00;38.50;;;;;6.50;44.81;98280.03;6212575;27;96630;-72
2022/02/15 04:33:31;;;;;;;;;49.60;39.60;;;;;6.43;45.14;98276.59;6192816;28;97621;-72
2022/02/15 04:36:35;;;;;;;;;48.25;39.00;;;;;6.40;44.58;98273.50;6208403;28;97498;-73
2022/02/15 04:39:39;;;;;;;;;49.00;41.00;;;;;6.32;44.92;98277.22;6210055;28;97536;-72
2022/02/15 04:42:47;;;;;;;;;49.20;40.00;;;;;6.29;44.65;98274.97;6199709;28;97829;-72
2022/02/15 04:45:50;;;;;;;;;50.00;40.00;;;;;6.19;45.15;98268.41;6196068;28;98883;-72
2022/02/15 04:48:55;;;;;;;;;50.75;40.00;;;;;6.27;45.26;98278.88;6215563;28;96809;-72
2022/02/15 04:51:58;;;;;;;;;53.00;41.00;;;;;6.24;45.08;98277.44;6215673;28;97264;-73
2022/02/15 04:55:02;;;;;;;;;54.40;43.00;;;;;6.11;45.23;98271.31;6191925;28;97434;-72
2022/02/15 04:58:06;;;;;;;;;51.80;41.40;;;;;6.18;45.01;98286.31;6195168;28;97326;-71
2022/02/15 05:01:17;;;;;;;;;51.20;41.00;;;;;6.13;45.35;98279.94;6186923;28;96725;-73
2022/02/15 05:07:48;;;;;;;;;49.60;40.60;;;;;6.04;45.20;98290.84;6215452;28;97447;-71
2022/02/15 05:10:52;;;;;;;;;50.00;39.20;;;;;5.95;45.61;98292.09;6191657;28;98698;-72
2022/02/15 05:14:03;;;;;;;;;52.00;40.20;;;;;6.03;45.06;98285.69;6217081;28;96566;-71
2022/02/15 05:17:15;;;;;;;;;53.00;41.00;;;;;6.01;45.80;98293.13;6206961;28;96568;-72
2022/02/15 05:20:26;;;;;;;;;53.00;42.00;;;;;6.03;45.43;98299.09;6219105;28;96771;-72
2022/02/15 05:23:29;;;;;;;;;53.00;41.60;;;;;6.01;45.55;98298.47;6196439;28;97371;-72
2022/02/15 05:26:33;;;;;;;;;54.40;42.40;;;;;5.99;46.07;98303.22;6199325;28;99402;-71
2022/02/15 05:29:41;;;;;;;;;53.50;41.50;;;;;5.97;45.12;98302.56;6205437;28;97482;-71
2022/02/15 05:32:57;;;;;;;;;53.00;42.50;;;;;5.95;45.34;98310.84;6217355;28;99563;-70
2022/02/15 05:36:00;;;;;;;;;54.00;42.75;;;;;5.89;45.36;98297.44;6220447;28;96532;-71
2022/02/15 05:39:05;;;;;;;;;52.00;42.00;;;;;5.97;45.15;98303.41;6214214;27;97192;-71
2022/02/15 05:42:12;;;;;;;;;54.50;41.75;;;;;6.05;46.07;98302.38;6211889;28;97660;-70
2022/02/15 05:45:17;;;;;;;;;53.20;42.00;;;;;6.07;46.16;98303.81;6178999;28;97077;-72
2022/02/15 05:48:43;;;;;;;;;53.25;42.25;;;;;6.08;46.18;98301.97;6220858;28;97992;-70
2022/02/15 05:52:09;;;;;;;;;53.25;41.00;;;;;5.97;45.87;98298.06;6223431;28;97114;-71
2022/02/15 05:55:14;;;;;;;;;51.20;41.00;;;;;5.96;45.43;98295.59;6213862;28;97444;-70
2022/02/15 05:58:18;;;;;;;;;53.20;42.20;;;;;5.99;45.82;98303.22;6195618;28;97395;-70
2022/02/15 06:01:25;;;;;;;;;52.40;42.20;;;;;6.01;45.73;98295.81;6213824;28;97137;-70
2022/02/15 06:04:29;;;;;;;;;53.00;43.00;;;;;6.08;45.23;98292.09;6201588;27;96858;-70
2022/02/15 06:07:38;;;;;;;;;54.60;42.60;;;;;6.15;44.97;98285.91;6209591;28;97473;-70
2022/02/15 06:11:03;;;;;;;;;56.00;43.80;;;;;6.21;44.83;98285.06;6200274;28;98576;-71
2022/02/15 06:14:15;;;;;;;;;53.00;42.60;;;;;6.23;44.69;98291.84;6193807;28;98338;-71
2022/02/15 06:17:19;;;;;;;;;56.60;42.80;;;;;6.09;45.12;98266.97;6184631;28;99580;-71
2022/02/15 06:20:25;;;;;;;;;51.50;40.00;;;;;6.68;44.53;98303.50;6215570;28;97369;-71
2022/02/15 06:23:30;;;;;;;;;52.00;42.00;;;;;7.04;44.34;98313.66;6222496;28;98234;-71
2022/02/15 06:26:43;;;;;;;;;45.40;35.00;;;;;7.59;44.32;98324.69;6189229;28;97493;-70
2022/02/15 06:30:05;;;;;;;;;42.00;33.80;;;;;8.23;43.56;98329.78;6228243;27;96572;-70
2022/02/15 06:33:19;;;;;;;;;38.80;32.80;;;;;8.82;42.77;98328.41;6207869;28;96987;-70
2022/02/15 06:36:24;;;;;;;;;46.40;35.00;;;;;9.50;41.35;98327.13;6225673;27;97135;-70
2022/02/15 06:39:28;;;;;;;;;46.60;38.00;;;;;10.34;39.57;98347.59;6225353;28;97339;-70
2022/02/15 06:42:48;;;;;;;;;49.00;37.00;;;;;11.81;36.73;98352.59;6193906;28;99745;-71
2022/02/15 06:45:54;;;;;;;;;53.25;40.75;;;;;13.39;33.53;98346.63;6208388;28;96788;-71
2022/02/15 06:49:04;;;;;;;;;49.40;41.40;;;;;14.68;30.16;98333.78;6190184;28;97850;-71
2022/02/15 06:52:08;;;;;;;;;52.20;41.00;;;;;15.69;28.40;98347.00;6193932;28;99475;-71
2022/02/15 06:55:11;;;;;;;;;51.00;40.00;;;;;16.54;26.63;98348.22;6210491;28;97223;-72
2022/02/15 06:58:19;;;;;;;;;51.40;41.00;;;;;17.47;25.71;98348.56;6188094;28;98378;-70
2022/02/15 07:01:22;;;;;;;;;51.50;41.00;;;;;18.42;24.85;98351.00;6202085;28;98456;-71
2022/02/15 07:04:29;;;;;;;;;52.00;41.40;;;;;19.34;23.68;98349.84;6189273;28;97451;-72
2022/02/15 07:07:34;;;;;;;;;49.00;39.00;;;;;20.24;22.58;98348.88;6213501;28;98131;-72
2022/02/15 07:10:40;;;;;;;;;53.00;41.20;;;;;21.13;21.71;98346.84;6204497;28;96774;-70
2022/02/15 07:13:44;;;;;;;;;52.00;41.00;;;;;21.87;21.39;98355.75;6221944;28;97252;-71
2022/02/15 07:16:48;;;;;;;;;49.00;41.00;;;;;22.36;20.27;98338.47;6214765;28;97265;-72
2022/02/15 07:19:53;;;;;;;;;52.60;42.20;;;;;23.38;19.68;98353.94;6206338;28;96600;-72
2022/02/15 07:22:56;;;;;;;;;53.00;42.00;;;;;23.85;19.19;98354.28;6202427;28;96908;-71
2022/02/15 07:26:40;;;;;;;;;56.40;45.00;;;;;24.47;18.67;98357.59;6220208;28;97474;-71
2022/02/15 07:29:46;;;;;;;;;53.80;43.20;;;;;25.17;18.00;98367.38;6221892;28;97546;-70
2022/02/15 07:33:05;;;;;;;;;52.00;42.00;;;;;25.83;17.69;98363.84;6204933;28;97394;-71
2022/02/15 07:36:13;;;;;;;;;52.80;41.80;;;;;26.35;16.94;98369.03;6200043;28;97037;-71
2022/02/15 07:39:17;;;;;;;;;54.00;44.00;;;;;26.79;16.30;98372.19;6213821;28;96565;-71
2022/02/15 07:42:21;;;;;;;;;53.40;42.40;;;;;27.24;16.11;98372.25;6221387;28;97783;-72
2022/02/15 07:45:29;;;;;;;;;53.00;41.20;;;;;27.71;15.87;98367.91;6213355;28;97306;-72
2022/02/15 07:48:32;;;;;;;;;53.00;43.00;;;;;28.00;15.66;98369.66;6207473;28;97445;-71
2022/02/15 07:51:36;;;;;;;;;58.00;46.00;;;;;28.37;15.23;98371.22;6201292;28;97867;-72
2022/02/15 07:54:40;;;;;;;;;59.25;46.00;;;;;28.73;14.89;98372.28;6223734;28;96665;-72
2022/02/15 07:57:44;;;;;;;;;53.60;42.80;;;;;28.81;14.80;98354.66;6209669;28;98757;-72
2022/02/15 08:00:48;;;;;;;;;53.00;43.50;;;;;29.32;14.65;98382.63;6192249;28;98781;-72
2022/02/15 08:03:52;;;;;;;;;52.00;42.80;;;;;29.75;14.16;98387.28;6209135;28;99458;-72
2022/02/15 08:07:03;;;;;;;;;50.00;41.00;;;;;30.03;13.80;98380.44;6213436;28;97396;-72
2022/02/15 08:10:08;;;;;;;;;53.00;42.20;;;;;30.20;13.99;98384.00;6223379;28;96952;-72
2022/02/15 08:13:18;;;;;;;;;50.00;41.00;;;;;30.34;13.37;98353.72;6223378;28;97258;-71
2022/02/15 08:16:21;;;;;;;;;50.00;40.00;;;;;30.83;13.39;98388.16;6198854;28;98113;-70
2022/02/15 08:19:27;;;;;;;;;47.60;38.00;;;;;30.87;13.16;98366.78;6192822;28;98149;-71
2022/02/15 08:22:33;;;;;;;;;45.00;36.00;;;;;31.19;12.93;98384.09;6216600;28;97452;-71
2022/02/15 08:25:36;;;;;;;;;48.60;37.60;;;;;31.37;13.10;98360.16;6186250;28;96618;-71
2022/02/15 08:28:43;;;;;;;;;43.00;36.00;;;;;31.98;12.69;98386.25;6224623;28;97569;-71
2022/02/15 08:31:47;;;;;;;;;41.75;35.00;;;;;32.49;12.48;98381.03;6221141;28;97524;-71
2022/02/15 08:34:51;;;;;;;;;42.80;35.00;;;;;32.45;12.15;98346.72;6208217;28;96949;-71
2022/02/15 08:37:58;;;;;;;;;44.50;36.00;;;;;33.19;12.41;98389.50;6236320;27;98114;-71
2022/02/15 08:41:02;;;;;;;;;37.00;32.00;;;;;33.35;12.23;98384.47;6216482;28;98040;-71
2022/02/15 08:44:06;;;;;;;;;36.50;32.00;;;;;33.45;11.82;98374.59;6230806;28;98245;-72
2022/02/15 08:47:10;;;;;;;;;38.60;33.00;;;;;33.56;11.93;98377.47;6222015;28;98341;-71
2022/02/15 08:50:14;;;;;;;;;30.00;28.00;;;;;33.82;11.66;98377.31;6211497;28;99586;-72
2022/02/15 08:53:19;;;;;;;;;32.80;29.80;;;;;34.04;11.35;98370.69;6218280;28;97585;-71
2022/02/15 08:56:22;;;;;;;;;27.60;26.40;;;;;34.05;11.20;98380.69;6214151;27;97636;-71
2022/02/15 08:59:26;;;;;;;;;27.00;26.00;;;;;33.48;11.39;98310.34;6204168;28;98738;-71
2022/02/15 09:02:30;;;;;;;;;26.60;23.60;;;;;33.72;11.37;98364.06;6210083;28;97234;-71
2022/02/15 09:05:33;;;;;;;;;31.00;28.80;;;;;34.10;11.29;98387.91;6215395;28;96893;-71
2022/02/15 09:08:39;;;;;;;;;31.00;28.00;;;;;34.45;11.10;98376.97;6206072;28;98017;-71
2022/02/15 09:11:44;;;;;;;;;29.00;27.00;;;;;34.65;10.88;98389.44;6235537;28;97595;-72
2022/02/15 09:14:47;;;;;;;;;32.00;29.00;;;;;34.82;11.16;98392.75;6224491;28;97562;-72
2022/02/15 09:17:50;;;;;;;;;31.50;26.50;;;;;34.81;10.70;98380.75;6196672;28;99642;-72
2022/02/15 09:20:54;;;;;;;;;26.00;24.00;;;;;34.73;11.08;98388.31;6193938;28;99468;-72
2022/02/15 09:23:59;;;;;;;;;27.20;25.20;;;;;34.62;11.29;98390.22;6228379;28;97440;-72
2022/02/15 09:27:03;;;;;;;;;31.00;28.00;;;;;34.37;10.73;98394.91;6216566;28;97872;-72
2022/02/15 09:30:07;;;;;;;;;27.20;26.20;;;;;34.14;11.07;98403.53;6206884;28;96958;-72
2022/02/15 09:33:11;;;;;;;;;32.60;30.00;;;;;34.02;11.45;98403.03;6181045;28;97215;-72
2022/02/15 09:36:35;;;;;;;;;33.75;30.00;;;;;33.91;11.57;98402.97;6216998;27;96687;-72
2022/02/15 09:39:39;;;;;;;;;39.40;32.40;;;;;33.76;11.11;98371.31;6215408;28;96813;-72
2022/02/15 09:42:43;;;;;;;;;32.60;29.00;;;;;33.94;11.24;98404.97;6215588;28;96947;-72
2022/02/15 09:45:49;;;;;;;;;38.40;34.00;;;;;34.12;11.63;98394.72;6211510;28;97746;-72
2022/02/15 09:48:54;;;;;;;;;34.00;31.00;;;;;34.05;11.35;98400.28;6215145;28;97131;-72
2022/02/15 09:51:59;;;;;;;;;34.00;30.00;;;;;34.06;11.39;98398.28;6197310;28;98435;-72
2022/02/15 09:55:05;;;;;;;;;33.00;27.50;;;;;34.22;11.51;98396.00;6212506;28;97751;-70
2022/02/15 09:58:09;;;;;;;;;22.20;21.00;;;;;33.95;11.00;98367.44;6237399;27;97217;-71
2022/02/15 10:01:13;;;;;;;;;26.00;24.00;;;;;34.03;11.08;98394.25;6224073;28;97473;-71
2022/02/15 10:04:32;;;;;;;;;28.00;23.60;;;;;34.00;10.97;98397.03;6171213;28;96711;-71
2022/02/15 10:07:35;;;;;;;;;24.00;23.00;;;;;33.94;11.12;98396.59;6207568;28;97451;-72
2022/02/15 10:10:42;;;;;;;;;24.60;23.40;;;;;33.84;11.25;98389.72;6211894;28;96589;-72
2022/02/15 10:13:47;;;;;;;;;23.00;21.00;;;;;33.80;11.47;98376.91;6194109;28;96524;-72
2022/02/15 10:16:52;;;;;;;;;24.20;22.80;;;;;33.74;11.20;98389.63;6189153;28;98479;-72
2022/02/15 10:19:57;;;;;;;;;22.20;19.60;;;;;33.66;11.27;98383.16;6192142;28;96612;-72
2022/02/15 10:23:17;;;;;;;;;24.00;22.00;;;;;33.37;11.24;98326.22;6212164;28;97592;-71
2022/02/15 10:26:22;;;;;;;;;24.00;23.00;;;;;33.64;11.40;98382.75;6188345;28;96482;-72
2022/02/15 10:29:29;;;;;;;;;22.80;20.20;;;;;33.82;11.13;98380.91;6191417;28;97554;-74
2022/02/15 10:32:32;;;;;;;;;20.80;19.00;;;;;33.87;11.02;98388.94;6213143;28;97361;-71
2022/02/15 10:35:38;;;;;;;;;21.40;19.60;;;;;33.79;10.85;98380.91;6189874;28;97211;-73
2022/02/15 10:38:43;;;;;;;;;25.00;23.50;;;;;33.73;11.13;98385.22;6172722;28;96733;-71
2022/02/15 10:41:48;;;;;;;;;23.60;22.60;;;;;33.66;11.23;98388.75;6212785;28;97332;-72
2022/02/15 10:44:57;;;;;;;;;24.25;22.25;;;;;33.28;11.38;98367.63;6211723;28;97607;-72
2022/02/15 10:48:07;;;;;;;;;22.00;20.80;;;;;33.37;11.39;98381.31;6210439;28;97460;-73
2022/02/15 10:51:11;;;;;;;;;21.67;20.00;;;;;33.58;11.53;98378.69;6206166;28;97554;-74
2022/02/15 10:54:32;;;;;;;;;20.00;19.00;;;;;33.65;11.42;98389.13;6207313;28;97509;-74
2022/02/15 10:57:37;;;;;;;;;23.50;22.50;;;;;33.39;11.33;98354.56;6179474;28;98898;-74
2022/02/15 11:00:42;;;;;;;;;23.40;22.40;;;;;33.48;11.44;98379.41;6186936;28;97839;-73
2022/02/15 11:03:46;;;;;;;;;21.00;21.00;;;;;33.17;11.68;98336.03;6227155;28;96720;-73
2022/02/15 11:06:51;;;;;;;;;24.00;21.75;;;;;33.42;11.43;98384.56;6228237;28;97001;-74
2022/02/15 11:10:08;;;;;;;;;22.00;20.00;;;;;33.46;11.37;98382.59;6233381;28;96720;-73
2022/02/15 11:13:14;;;;;;;;;21.00;19.00;;;;;32.98;11.49;98353.75;6231776;28;96611;-73
2022/02/15 11:16:19;;;;;;;;;21.00;19.00;;;;;32.78;11.43;98385.84;6207503;28;97018;-73
2022/02/15 11:19:32;;;;;;;;;20.50;19.50;;;;;32.44;11.81;98390.56;6205478;28;99501;-73
2022/02/15 11:22:43;;;;;;;;;21.00;19.00;;;;;32.27;11.91;98385.53;6212576;28;97883;-72
2022/02/15 11:25:49;;;;;;;;;19.25;19.00;;;;;32.13;11.89;98377.75;6222773;28;97631;-73
2022/02/15 11:28:56;;;;;;;;;19.80;18.20;;;;;31.96;12.18;98381.03;6218061;28;99440;-73
2022/02/15 11:31:59;;;;;;;;;20.00;17.60;;;;;31.76;12.17;98387.91;6200792;28;97557;-73
2022/02/15 11:35:09;;;;;;;;;23.80;20.00;;;;;31.42;12.47;98383.31;6222999;28;97701;-73
2022/02/15 11:38:13;;;;;;;;;17.50;16.00;;;;;31.44;12.63;98383.75;6208908;28;100657;-74
2022/02/15 11:41:16;;;;;;;;;18.50;18.00;;;;;31.19;12.40;98392.44;6227160;28;98246;-73
2022/02/15 11:44:30;;;;;;;;;23.00;20.00;;;;;30.92;12.75;98387.94;6194241;28;98565;-73
2022/02/15 11:47:45;;;;;;;;;19.50;18.00;;;;;30.43;13.50;98382.13;6193492;28;97701;-74
2022/02/15 11:50:51;;;;;;;;;20.00;19.40;;;;;30.00;13.72;98397.84;6211624;28;96486;-73
2022/02/15 11:53:57;;;;;;;;;18.00;17.00;;;;;29.75;13.59;98390.88;6211886;28;97493;-71
2022/02/15 11:57:02;;;;;;;;;19.40;18.00;;;;;29.28;13.58;98393.59;6194906;28;96689;-72
2022/02/15 12:00:08;;;;;;;;;18.40;17.00;;;;;28.55;14.23;98379.22;6216739;28;96758;-72
2022/02/15 12:03:16;;;;;;;;;17.25;16.00;;;;;28.43;14.36;98386.44;6226335;27;96925;-72
2022/02/15 12:06:21;;;;;;;;;18.00;16.00;;;;;28.30;14.36;98384.84;6227804;28;97293;-72
2022/02/15 12:09:28;;;;;;;;;17.60;16.60;;;;;27.71;14.98;98373.47;6224398;27;97933;-73
2022/02/15 12:12:32;;;;;;;;;17.00;16.00;;;;;27.56;15.25;98397.09;6229875;27;97488;-73
2022/02/15 12:15:37;;;;;;;;;16.00;14.80;;;;;27.43;15.01;98391.88;6214673;27;98502;-70
2022/02/15 12:18:41;;;;;;;;;15.00;13.75;;;;;27.44;15.08;98397.09;6229451;27;97492;-72
2022/02/15 12:21:44;;;;;;;;;13.80;12.80;;;;;27.56;15.04;98401.88;6214993;28;96797;-71
2022/02/15 12:24:51;;;;;;;;;16.00;14.40;;;;;27.69;14.85;98400.72;6216755;28;96787;-72
2022/02/15 12:27:57;;;;;;;;;14.00;12.20;;;;;27.47;14.91;98398.34;6212028;28;100030;-71
2022/02/15 12:31:02;;;;;;;;;17.40;15.00;;;;;26.97;15.15;98396.63;6233709;28;96498;-71
2022/02/15 12:34:06;;;;;;;;;13.80;12.80;;;;;26.78;15.34;98392.75;6222187;28;97064;-70
2022/02/15 12:37:17;;;;;;;;;14.67;13.67;;;;;26.36;15.72;98394.72;6199848;28;98462;-71
2022/02/15 12:40:21;;;;;;;;;15.20;14.00;;;;;26.05;16.18;98398.63;6221167;28;96563;-72
2022/02/15 12:43:30;;;;;;;;;17.40;17.00;;;;;25.68;16.87;98397.53;6232629;28;96682;-72
2022/02/15 12:46:36;;;;;;;;;15.60;14.00;;;;;25.32;16.85;98408.19;6205005;28;99654;-71
2022/02/15 12:49:40;;;;;;;;;16.00;15.00;;;;;25.19;17.01;98404.53;6240047;28;97501;-72
2022/02/15 12:52:44;;;;;;;;;14.60;13.00;;;;;25.03;16.86;98404.22;6235279;28;96927;-72
2022/02/15 12:55:50;;;;;;;;;14.20;12.20;;;;;25.01;17.12;98408.47;6221625;28;99628;-71
2022/02/15 12:58:56;;;;;;;;;14.60;14.00;;;;;24.91;17.34;98400.53;6183511;28;96809;-71
2022/02/15 13:02:01;;;;;;;;;16.00;14.00;;;;;24.74;17.56;98398.56;6226329;28;97028;-72
2022/02/15 13:05:05;;;;;;;;;15.00;12.00;;;;;24.60;17.95;98395.19;6203957;28;96649;-71
2022/02/15 13:08:17;;;;;;;;;20.60;17.00;;;;;24.66;17.94;98396.63;6240066;28;96691;-71
2022/02/15 13:11:26;;;;;;;;;17.20;14.60;;;;;24.70;18.16;98394.03;6222004;28;96500;-72
2022/02/15 13:14:31;;;;;;;;;14.60;14.00;;;;;24.55;17.82;98390.63;6221816;28;97037;-72
2022/02/15 13:17:45;;;;;;;;;16.00;14.00;;;;;24.45;18.15;98387.41;6235291;28;98306;-71
2022/02/15 13:20:52;;;;;;;;;16.00;14.00;;;;;24.38;17.72;98387.91;6185716;28;97791;-71
2022/02/15 13:23:58;;;;;;;;;16.40;14.00;;;;;24.44;17.99;98394.03;6217545;28;98117;-72
2022/02/15 13:27:01;;;;;;;;;17.00;16.00;;;;;24.17;18.38;98356.63;6239801;28;97367;-72
2022/02/15 13:30:21;;;;;;;;;17.00;16.75;;;;;24.17;18.26;98395.97;6210949;28;97438;-72
2022/02/15 13:33:26;;;;;;;;;17.00;15.60;;;;;24.14;18.56;98388.31;6196722;28;97481;-72
2022/02/15 13:36:37;;;;;;;;;17.40;16.40;;;;;23.94;18.62;98371.63;6214913;28;97133;-71
2022/02/15 13:39:41;;;;;;;;;15.00;14.00;;;;;23.71;18.62;98377.22;6203030;28;99569;-71
2022/02/15 13:42:46;;;;;;;;;16.25;15.25;;;;;23.85;18.79;98388.09;6221907;28;97086;-72
2022/02/15 13:45:49;;;;;;;;;15.50;14.00;;;;;23.75;18.85;98388.41;6217079;28;98400;-72
2022/02/15 13:48:55;;;;;;;;;17.00;16.00;;;;;23.60;18.88;98386.91;6219307;28;97747;-71
2022/02/15 13:51:59;;;;;;;;;20.00;18.00;;;;;23.28;19.30;98393.53;6195825;28;99808;-71
2022/02/15 13:55:05;;;;;;;;;19.00;16.00;;;;;22.95;19.55;98389.50;6223508;27;96925;-73
2022/02/15 13:58:08;;;;;;;;;17.60;16.20;;;;;22.44;19.98;98374.22;6201965;28;96819;-72
2022/02/15 14:01:12;;;;;;;;;21.00;20.00;;;;;22.38;20.40;98400.19;6214516;28;96644;-73
2022/02/15 14:04:16;;;;;;;;;16.60;15.60;;;;;22.27;20.73;98403.50;6213622;28;96727;-73
2022/02/15 14:07:21;;;;;;;;;19.25;18.00;;;;;22.16;21.21;98400.16;6214318;28;96752;-73
2022/02/15 14:10:25;;;;;;;;;19.80;18.20;;;;;22.02;21.55;98397.44;6222004;28;97007;-72
2022/02/15 14:13:29;;;;;;;;;19.00;17.00;;;;;21.78;21.30;98401.53;6229657;28;96559;-73
2022/02/15 14:16:32;;;;;;;;;18.00;17.60;;;;;21.34;21.64;98361.00;6218489;28;98217;-72
2022/02/15 14:19:37;;;;;;;;;25.00;19.75;;;;;21.43;21.94;98405.78;6219785;28;97440;-70
2022/02/15 14:22:43;;;;;;;;;25.40;22.00;;;;;21.04;22.50;98408.94;6222588;28;97508;-71
2022/02/15 14:25:47;;;;;;;;;24.75;20.50;;;;;20.91;23.09;98407.81;6205971;28;98886;-70
2022/02/15 14:28:50;;;;;;;;;27.00;23.00;;;;;20.88;23.14;98408.41;6213573;28;96863;-70
2022/02/15 14:31:53;;;;;;;;;28.00;23.50;;;;;20.85;23.44;98406.28;6207018;28;96747;-71